»·PEaware :: N25CV KBUR-KLAS

N25CV :: KBUR-KLAS

FLIGHT INFORMATION

Flight Status: Arrived
Operator: Privately registered:
United States
More flights under this callsign
Pilot: Anonymous 16580 (16580)
Aircraft: Unknown
(SF50)
More flights by this aircraft type
Origin: KBUR Bob Hope-Burbank
United States
Destination: KLAS McCarran Intl
United States
More flights between these airports :: More routes between these airports
Route: +SLAPP1 MISEN KEPEC6
File this flight plan on PilotEdge
Remarks: I5 Rating
Altitude:
(Current/Filed)
23,000ft
Speed:
(Current/Filed)
300kts
Departed: 22-Mar-20 10:33 AM
Arrived: 22-Mar-20 11:27 AM
Distance/Time
Traveled:
193nm/0:54
Distance/Time
To Go:
Arrived

Flight Plot

Page will automatically refresh every two minutes.

Flight plan parsing failed; only flown route is shown


Map Options




Map Legend


Flown Route
Filed Route
Departure Airport
Arrival Airport
Navaid (VOR, NDB)
Fix

Horizontal Profiles

Position Reports

Time Latitude Longitude Heading Altitude Ground
Speed
22-Mar-20 10:20 34.200215 -118.358843 258 721ft 0kts
22-Mar-20 10:21 34.200215 -118.358843 258 721ft 0kts
22-Mar-20 10:22 34.200215 -118.358843 258 721ft 0kts
22-Mar-20 10:23 34.200215 -118.358843 258 721ft 0kts
22-Mar-20 10:25 34.200215 -118.358843 258 721ft 0kts
22-Mar-20 10:26 34.200215 -118.358843 258 721ft 0kts
22-Mar-20 10:27 34.200215 -118.358843 258 721ft 0kts
22-Mar-20 10:28 34.201799 -118.358847 46 728ft 8kts
22-Mar-20 10:29 34.205061 -118.359609 347 739ft 19kts
22-Mar-20 10:30 34.209624 -118.360864 346 761ft 14kts
22-Mar-20 10:31 34.211895 -118.361387 31 769ft 0kts
22-Mar-20 10:32 34.211910 -118.361376 32 769ft 1kts
22-Mar-20 10:33 34.194637 -118.356583 177 1251ft 144kts
22-Mar-20 10:34 34.164221 -118.381596 222 4087ft 140kts
22-Mar-20 10:35 34.134514 -118.411554 222 6652ft 142kts
22-Mar-20 10:36 34.103981 -118.441621 222 8942ft 153kts
22-Mar-20 10:37 34.104538 -118.489037 345 9002ft 229kts
22-Mar-20 10:38 34.168269 -118.465596 18 9616ft 239kts
22-Mar-20 10:39 34.230865 -118.437377 19 11732ft 247kts
22-Mar-20 10:40 34.297029 -118.407546 18 13485ft 261kts
22-Mar-20 10:40 34.354810 -118.381467 17 14797ft 272kts
22-Mar-20 10:42 34.439516 -118.342899 17 16458ft 286kts
22-Mar-20 10:43 34.507263 -118.288311 37 17720ft 302kts
22-Mar-20 10:43 34.562255 -118.233407 37 18688ft 311kts
22-Mar-20 10:44 34.629906 -118.165574 36 19744ft 321kts
22-Mar-20 10:46 34.677250 -118.055898 82 20835ft 327kts
22-Mar-20 10:47 34.693111 -117.946029 91 21685ft 332kts
22-Mar-20 10:47 34.698914 -117.852379 92 22352ft 337kts
22-Mar-20 10:48 34.705353 -117.737089 94 23078ft 344kts
22-Mar-20 10:49 34.710044 -117.617848 93 23216ft 365kts
22-Mar-20 10:50 34.719077 -117.492154 77 23222ft 386kts
22-Mar-20 10:51 34.751975 -117.366704 74 23221ft 392kts
22-Mar-20 10:52 34.785526 -117.240147 75 23207ft 393kts
22-Mar-20 10:53 34.818890 -117.113667 75 23201ft 393kts
22-Mar-20 10:54 34.852192 -116.986860 76 23198ft 393kts
22-Mar-20 10:55 34.885334 -116.860041 76 23198ft 392kts
22-Mar-20 10:56 34.918884 -116.734255 67 23190ft 395kts
22-Mar-20 10:57 34.979547 -116.622133 58 23203ft 397kts
22-Mar-20 10:58 35.041837 -116.511612 60 23205ft 395kts
22-Mar-20 10:59 35.104798 -116.402106 51 23415ft 391kts
22-Mar-20 11:00 35.180421 -116.306205 48 23603ft 392kts
22-Mar-20 11:01 35.256458 -116.210811 49 22672ft 390kts
22-Mar-20 11:02 35.329105 -116.119424 50 21039ft 361kts
22-Mar-20 11:03 35.396815 -116.034008 50 19482ft 340kts
22-Mar-20 11:04 35.460760 -115.953138 50 18001ft 316kts
22-Mar-20 11:05 35.518756 -115.879604 50 16655ft 288kts
22-Mar-20 11:06 35.574086 -115.809248 49 15379ft 298kts
22-Mar-20 11:07 35.633163 -115.734075 48 14233ft 306kts
22-Mar-20 11:08 35.691447 -115.659718 48 13808ft 299kts
22-Mar-20 11:09 35.748295 -115.589073 37 13582ft 305kts
22-Mar-20 11:10 35.829579 -115.571546 2 13177ft 301kts
22-Mar-20 11:11 35.912009 -115.566913 2 13020ft 293kts
22-Mar-20 11:12 35.981331 -115.529599 61 13001ft 283kts
22-Mar-20 11:13 36.010143 -115.441421 68 11792ft 271kts
22-Mar-20 11:14 36.029571 -115.353911 94 10802ft 265kts
22-Mar-20 11:15 36.023020 -115.263443 95 9750ft 255kts
22-Mar-20 11:16 36.017049 -115.179875 95 9023ft 233kts
22-Mar-20 11:17 36.011511 -115.098454 95 8224ft 238kts
22-Mar-20 11:18 36.010560 -115.018930 62 7887ft 232kts
22-Mar-20 11:19 36.066972 -114.982735 21 5890ft 230kts
22-Mar-20 11:20 36.123340 -114.957745 12 4937ft 196kts
22-Mar-20 11:21 36.151280 -115.000743 261 5088ft 196kts
22-Mar-20 11:22 36.139710 -115.064684 255 4831ft 160kts
22-Mar-20 11:23 36.131368 -115.116638 260 4087ft 129kts
22-Mar-20 11:24 36.119833 -115.145097 200 2662ft 93kts
22-Mar-20 11:25 36.097764 -115.157532 203 2130ft 91kts
22-Mar-20 11:26 36.089363 -115.163506 264 2129ft 0kts
22-Mar-20 11:27 36.089363 -115.163506 264 2129ft 0kts
22-Mar-20 11:28 36.087862 -115.165596 204 2140ft 18kts
22-Mar-20 11:29 36.083858 -115.167882 205 2157ft 10kts
22-Mar-20 11:30 36.080948 -115.170902 220 2170ft 13kts
22-Mar-20 11:31 36.080756 -115.170825 85 2170ft 0kts
22-Mar-20 11:32 36.080756 -115.170825 85 2170ft 0kts
22-Mar-20 11:33 36.080756 -115.170825 85 2170ft 0kts
22-Mar-20 11:34 36.080756 -115.170825 85 2170ft 0kts
22-Mar-20 11:35 36.080756 -115.170825 85 2170ft 0kts
22-Mar-20 11:36 36.080756 -115.170825 85 2170ft 0kts
22-Mar-20 11:37 36.080756 -115.170825 85 2170ft 0kts
22-Mar-20 11:38 36.080756 -115.170825 85 2170ft 0kts
22-Mar-20 11:39 36.080756 -115.170825 85 2170ft 0kts
22-Mar-20 11:40 36.080756 -115.170825 85 2170ft 0kts

Navigation Log

Ident Type
Flight plan parsing failed, navigation log unavailable